createdAt,value
2018-07-13T00:01:32.011Z,63.76
2018-07-13T00:03:59.315Z,63.98
2018-07-13T00:06:26.660Z,63.92
2018-07-13T00:08:54.032Z,63.60
2018-07-13T00:11:21.351Z,64.34
2018-07-13T00:14:24.067Z,64.37
2018-07-13T00:16:52.585Z,64.23
2018-07-13T00:19:20.635Z,64.81
2018-07-13T00:21:47.947Z,65.00
2018-07-13T00:24:15.306Z,65.25
2018-07-13T00:26:42.669Z,64.00
2018-07-13T00:29:10.338Z,64.87
2018-07-13T00:31:38.500Z,64.60
2018-07-13T00:34:05.913Z,65.09
2018-07-13T00:36:33.257Z,64.71
2018-07-13T00:39:00.560Z,65.08
2018-07-13T00:41:27.852Z,65.04
2018-07-13T00:43:55.164Z,65.76
2018-07-13T00:46:22.793Z,65.67
2018-07-13T00:48:50.058Z,65.63
2018-07-13T00:51:17.501Z,65.68
2018-07-13T00:53:45.059Z,66.52
2018-07-13T00:56:12.475Z,67.06
2018-07-13T00:58:39.703Z,66.52
2018-07-13T01:01:07.093Z,67.02
2018-07-13T01:03:34.417Z,67.32
2018-07-13T01:06:02.013Z,67.33
2018-07-13T01:08:29.276Z,66.10
2018-07-13T01:10:56.677Z,66.18
2018-07-13T01:13:23.958Z,66.15
2018-07-13T01:15:51.243Z,65.70
2018-07-13T01:18:18.660Z,66.35
2018-07-13T01:20:45.973Z,66.70
2018-07-13T01:23:13.336Z,66.05
2018-07-13T01:25:40.647Z,66.43
2018-07-13T01:28:08.025Z,66.33
2018-07-13T01:30:35.637Z,66.85
2018-07-13T01:33:03.169Z,66.75
2018-07-13T01:35:30.460Z,67.43
2018-07-13T01:37:57.738Z,67.71
2018-07-13T01:40:25.083Z,67.57
2018-07-13T01:42:52.394Z,67.90
2018-07-13T01:45:19.669Z,68.09
2018-07-13T01:47:46.962Z,67.98
2018-07-13T01:50:14.275Z,67.68
2018-07-13T01:52:41.615Z,67.73
2018-07-13T01:55:08.859Z,67.05
2018-07-13T01:57:36.210Z,67.32
2018-07-13T02:00:04.252Z,67.22
2018-07-13T02:02:31.574Z,68.27
2018-07-13T02:04:58.918Z,67.13
2018-07-13T02:07:26.214Z,68.02
2018-07-13T02:09:54.575Z,67.57
2018-07-13T02:12:21.956Z,67.58
2018-07-13T02:14:50.855Z,68.83
2018-07-13T02:17:18.084Z,68.90
2018-07-13T02:19:45.476Z,69.03
2018-07-13T02:22:13.053Z,68.94
2018-07-13T02:24:40.300Z,69.29
2018-07-13T02:27:07.640Z,69.27
2018-07-13T02:29:34.976Z,69.05
2018-07-13T02:32:02.291Z,69.20
2018-07-13T02:34:29.648Z,69.04
2018-07-13T02:36:56.914Z,69.41
2018-07-13T02:39:24.259Z,68.92
2018-07-13T02:41:51.534Z,68.88
2018-07-13T02:44:18.856Z,69.18
2018-07-13T02:46:46.176Z,68.47
2018-07-13T02:49:13.529Z,69.33
2018-07-13T02:51:40.798Z,69.61
2018-07-13T02:54:09.681Z,68.98
2018-07-13T02:56:37.053Z,70.42
2018-07-13T02:59:04.351Z,69.56
2018-07-13T03:01:31.662Z,69.09
2018-07-13T03:03:58.941Z,69.34
2018-07-13T03:06:26.227Z,69.60
2018-07-13T03:08:53.500Z,69.66
2018-07-13T03:11:20.812Z,69.72
2018-07-13T03:13:48.300Z,70.07
2018-07-13T03:16:15.587Z,69.99
2018-07-13T03:18:42.895Z,70.79
2018-07-13T03:21:10.184Z,68.63
2018-07-13T03:23:37.442Z,69.28
2018-07-13T03:26:04.744Z,69.79
2018-07-13T03:28:32.119Z,70.32
2018-07-13T03:30:59.370Z,70.39
2018-07-13T03:33:26.731Z,70.73
2018-07-13T03:35:54.081Z,70.50
2018-07-13T03:38:21.398Z,70.69
2018-07-13T03:40:48.753Z,70.33
2018-07-13T03:43:16.068Z,71.32
2018-07-13T03:45:43.409Z,71.16
2018-07-13T03:48:10.666Z,70.67
2018-07-13T03:50:37.940Z,70.55
2018-07-13T03:53:05.337Z,70.85
2018-07-13T03:55:32.600Z,70.02
2018-07-13T03:57:59.906Z,69.85
2018-07-13T04:00:27.200Z,71.07
2018-07-13T04:02:54.443Z,69.14
2018-07-13T04:05:21.734Z,69.90
2018-07-13T04:07:49.051Z,70.25
2018-07-13T04:10:16.404Z,70.44
2018-07-13T04:12:43.690Z,70.16
2018-07-13T04:15:10.975Z,68.93
2018-07-13T04:17:38.225Z,69.05
2018-07-13T04:20:05.558Z,69.60
2018-07-13T04:22:32.895Z,69.95
2018-07-13T04:25:00.194Z,70.35
2018-07-13T04:27:27.610Z,70.84
2018-07-13T04:29:55.482Z,70.97
2018-07-13T04:32:22.770Z,70.28
2018-07-13T04:34:50.109Z,69.89
2018-07-13T04:37:17.377Z,69.70
2018-07-13T04:39:44.689Z,70.02
2018-07-13T04:42:12.000Z,69.52
2018-07-13T04:44:39.363Z,69.59
2018-07-13T04:47:06.670Z,69.96
2018-07-13T04:49:34.230Z,70.83
2018-07-13T04:52:01.573Z,71.11
2018-07-13T04:54:28.911Z,70.79
2018-07-13T04:56:56.406Z,70.42
2018-07-13T04:59:23.834Z,69.75
2018-07-13T05:01:51.303Z,68.79
2018-07-13T05:04:18.732Z,69.12
2018-07-13T05:06:46.149Z,70.38
2018-07-13T05:09:13.419Z,70.31
2018-07-13T05:11:40.750Z,70.11
2018-07-13T05:14:08.147Z,69.75
2018-07-13T05:16:35.451Z,69.46
2018-07-13T05:19:02.763Z,68.75
2018-07-13T05:21:30.275Z,68.28
2018-07-13T05:23:57.580Z,67.22
2018-07-13T05:26:25.124Z,67.82
2018-07-13T05:28:52.536Z,67.15
2018-07-13T05:31:19.923Z,67.17
2018-07-13T05:33:47.281Z,66.34
2018-07-13T05:36:14.647Z,65.88
2018-07-13T05:38:42.047Z,66.22
2018-07-13T05:41:09.359Z,66.49
2018-07-13T05:43:36.719Z,67.36
2018-07-13T05:46:04.035Z,67.48
2018-07-13T05:48:31.844Z,66.69
2018-07-13T05:51:02.227Z,67.34
2018-07-13T05:53:32.398Z,67.56
2018-07-13T05:55:59.829Z,67.86
2018-07-13T05:58:27.804Z,67.30
2018-07-13T06:00:55.161Z,67.43
2018-07-13T06:03:22.439Z,66.69
2018-07-13T06:05:49.673Z,66.57
2018-07-13T06:08:17.009Z,65.57
2018-07-13T06:10:44.425Z,64.70
2018-07-13T06:13:11.779Z,64.25
2018-07-13T06:15:39.118Z,62.96
2018-07-13T06:18:06.460Z,62.02
2018-07-13T06:20:33.756Z,61.41
2018-07-13T06:23:01.035Z,60.78
2018-07-13T06:25:28.406Z,60.38
2018-07-13T06:27:55.621Z,59.27
2018-07-13T06:30:22.930Z,57.64
2018-07-13T06:32:50.269Z,56.57
2018-07-13T06:35:17.604Z,55.23
2018-07-13T06:37:44.912Z,54.18
2018-07-13T06:40:12.224Z,55.59
2018-07-13T06:42:39.465Z,54.40
2018-07-13T06:45:06.805Z,53.72
2018-07-13T06:47:34.106Z,53.69
2018-07-13T06:50:01.354Z,52.48
2018-07-13T06:52:28.651Z,53.02
2018-07-13T06:54:56.314Z,52.78
2018-07-13T06:57:35.077Z,52.12
2018-07-13T07:00:11.423Z,50.73
2018-07-13T07:02:40.721Z,50.01
2018-07-13T07:06:17.023Z,49.93
2018-07-13T07:08:45.851Z,49.59
2018-07-13T07:11:13.182Z,50.24
2018-07-13T07:13:41.431Z,50.51
2018-07-13T07:16:08.804Z,48.46
2018-07-13T07:18:36.306Z,47.95
2018-07-13T07:21:03.650Z,47.28
2018-07-13T07:23:32.087Z,48.00
2018-07-13T07:26:00.152Z,46.99
2018-07-13T07:28:27.723Z,46.74
2018-07-13T07:30:55.747Z,45.62
2018-07-13T07:33:23.250Z,46.43
2018-07-13T07:35:50.554Z,45.95
2018-07-13T07:38:18.047Z,46.81
2018-07-13T07:40:45.584Z,45.19
2018-07-13T07:43:12.923Z,45.27
2018-07-13T07:45:40.227Z,45.71
2018-07-13T07:48:07.561Z,45.53
2018-07-13T07:50:35.017Z,46.03
2018-07-13T07:53:02.496Z,45.54
2018-07-13T07:55:29.928Z,44.47
2018-07-13T07:57:57.328Z,43.81
2018-07-13T08:00:24.685Z,45.00
2018-07-13T08:02:52.174Z,43.65
2018-07-13T08:05:19.549Z,42.62
2018-07-13T08:07:46.948Z,41.02
2018-07-13T08:10:14.496Z,40.42
2018-07-13T08:12:41.874Z,40.70
2018-07-13T08:15:09.228Z,41.30
2018-07-13T08:17:36.601Z,41.42
2018-07-13T08:20:04.313Z,41.05
2018-07-13T08:22:32.497Z,44.11
2018-07-13T08:25:00.186Z,44.60
2018-07-13T08:27:43.596Z,44.74
2018-07-13T08:30:24.222Z,44.94
2018-07-13T08:32:51.540Z,45.03
2018-07-13T08:35:18.799Z,43.63
2018-07-13T08:37:46.117Z,42.93
2018-07-13T08:40:13.451Z,42.97
2018-07-13T08:42:41.255Z,43.40
2018-07-13T08:45:08.691Z,43.86
2018-07-13T08:47:35.932Z,44.49
2018-07-13T08:50:03.539Z,43.73
2018-07-13T08:52:31.013Z,42.08
2018-07-13T08:55:04.275Z,42.05
2018-07-13T08:57:31.705Z,40.83
2018-07-13T08:59:59.011Z,39.18
2018-07-13T09:02:26.390Z,38.43
2018-07-13T09:04:53.725Z,37.95
2018-07-13T09:07:21.060Z,36.58
2018-07-13T09:09:48.314Z,36.25
2018-07-13T09:12:15.611Z,36.41
2018-07-13T09:14:43.484Z,37.16
2018-07-13T09:17:10.838Z,38.26
2018-07-13T09:19:38.185Z,39.82
2018-07-13T09:22:05.699Z,40.46
2018-07-13T09:24:33.020Z,40.25
2018-07-13T09:27:00.319Z,40.24
2018-07-13T09:29:27.673Z,38.96
2018-07-13T09:31:55.015Z,38.64
2018-07-13T09:34:22.369Z,37.34
2018-07-13T09:36:49.787Z,36.66
2018-07-13T09:39:17.189Z,39.44
2018-07-13T09:41:44.481Z,39.34
2018-07-13T09:44:11.819Z,38.70
2018-07-13T09:46:39.149Z,36.10
2018-07-13T09:49:06.554Z,36.85
2018-07-13T09:51:33.957Z,37.30
2018-07-13T09:54:01.536Z,36.51
2018-07-13T09:56:28.693Z,35.46
2018-07-13T09:58:55.982Z,36.58
2018-07-13T10:01:23.665Z,36.34
2018-07-13T10:03:51.038Z,36.13
2018-07-13T10:06:18.460Z,36.42
2018-07-13T10:08:45.789Z,38.02
2018-07-13T10:11:13.216Z,37.50
2018-07-13T10:13:40.672Z,36.89
2018-07-13T10:16:07.998Z,38.31
2018-07-13T10:18:35.411Z,38.16
2018-07-13T10:21:02.725Z,38.91
2018-07-13T10:23:30.445Z,36.47
2018-07-13T10:26:02.785Z,36.16
2018-07-13T10:28:31.075Z,36.84
2018-07-13T10:30:58.460Z,37.57
2018-07-13T10:33:25.866Z,38.25
2018-07-13T10:35:53.391Z,39.32
2018-07-13T10:38:20.717Z,39.26
2018-07-13T10:40:48.046Z,38.24
2018-07-13T10:43:15.400Z,39.18
2018-07-13T10:45:42.789Z,39.38
2018-07-13T10:48:10.008Z,38.68
2018-07-13T10:50:37.282Z,39.44
2018-07-13T10:53:04.509Z,39.39
2018-07-13T10:55:31.748Z,38.55
2018-07-13T10:57:59.082Z,38.95
2018-07-13T11:00:26.483Z,38.30
2018-07-13T11:02:54.000Z,38.53
2018-07-13T11:05:21.337Z,39.33
2018-07-13T11:07:48.685Z,40.30
2018-07-13T11:10:15.963Z,40.06
2018-07-13T11:12:43.311Z,39.67
2018-07-13T11:15:10.662Z,39.34
2018-07-13T11:17:37.943Z,38.55
2018-07-13T11:20:05.307Z,38.50
2018-07-13T11:22:32.621Z,36.54
2018-07-13T11:24:59.912Z,37.23
2018-07-13T11:27:27.151Z,35.73
2018-07-13T11:29:54.440Z,37.67
2018-07-13T11:32:21.752Z,37.91
2018-07-13T11:34:49.268Z,36.37
2018-07-13T11:37:16.569Z,35.54
2018-07-13T11:39:43.853Z,35.79
2018-07-13T11:42:11.142Z,36.46
2018-07-13T11:44:38.409Z,37.03
2018-07-13T11:47:05.684Z,37.67
2018-07-13T11:49:32.945Z,36.76
2018-07-13T11:52:00.235Z,36.36
2018-07-13T11:54:27.564Z,36.21
2018-07-13T11:56:54.833Z,34.82
2018-07-13T11:59:22.233Z,33.06
2018-07-13T12:01:49.602Z,31.88
2018-07-13T12:04:16.808Z,30.47
2018-07-13T12:06:44.089Z,30.11
2018-07-13T12:09:11.445Z,29.07
2018-07-13T12:11:38.740Z,29.42
2018-07-13T12:14:06.033Z,29.29
2018-07-13T12:16:33.421Z,30.54
2018-07-13T12:19:00.632Z,28.12
2018-07-13T12:21:27.921Z,27.82
2018-07-13T12:23:55.280Z,28.63
2018-07-13T12:26:22.613Z,27.77
2018-07-13T12:28:50.085Z,27.66
2018-07-13T12:31:17.391Z,28.75
2018-07-13T12:33:44.609Z,29.17
2018-07-13T12:36:11.908Z,30.11
2018-07-13T12:38:39.284Z,30.55
2018-07-13T12:41:06.680Z,33.13
2018-07-13T12:43:34.047Z,33.51
2018-07-13T12:46:01.364Z,34.16
2018-07-13T12:48:28.697Z,34.41
2018-07-13T12:50:56.106Z,35.29
2018-07-13T12:53:23.500Z,35.17
2018-07-13T12:55:50.835Z,32.91
2018-07-13T12:58:18.131Z,32.78
2018-07-13T13:00:45.482Z,32.32
2018-07-13T13:03:12.895Z,31.53
2018-07-13T13:05:40.296Z,30.79
2018-07-13T13:08:07.499Z,29.03
2018-07-13T13:10:34.814Z,29.48
2018-07-13T13:13:02.159Z,31.64
2018-07-13T13:15:29.405Z,31.42
2018-07-13T13:17:56.672Z,31.86
2018-07-13T13:20:23.918Z,31.33
2018-07-13T13:22:51.221Z,30.47
2018-07-13T13:25:18.520Z,29.99
2018-07-13T13:27:45.833Z,29.24
2018-07-13T13:30:13.184Z,29.73
2018-07-13T13:32:40.503Z,29.72
2018-07-13T13:35:07.756Z,29.01
2018-07-13T13:37:35.000Z,28.24
2018-07-13T13:40:02.333Z,28.40
2018-07-13T13:42:29.662Z,29.78
2018-07-13T13:44:56.958Z,29.38
2018-07-13T13:47:24.260Z,30.05
2018-07-13T13:49:51.575Z,31.17
2018-07-13T13:52:18.899Z,30.28
2018-07-13T13:54:46.233Z,31.56
2018-07-13T13:57:13.543Z,32.06
2018-07-13T13:59:40.878Z,31.75
2018-07-13T14:02:08.269Z,31.07
2018-07-13T14:04:35.586Z,31.62
2018-07-13T14:07:02.863Z,31.74
2018-07-13T14:09:30.123Z,31.82
2018-07-13T14:11:57.483Z,31.82
2018-07-13T14:14:24.892Z,31.18
2018-07-13T14:16:52.169Z,31.76
2018-07-13T14:19:28.607Z,32.65
2018-07-13T14:21:55.904Z,32.82
2018-07-13T14:24:24.744Z,33.07
2018-07-13T14:26:57.238Z,32.49
2018-07-13T14:29:24.573Z,32.17
2018-07-13T14:31:51.958Z,30.35
2018-07-13T14:34:20.462Z,31.06
2018-07-13T14:36:47.780Z,30.50
2018-07-13T14:39:15.058Z,29.78
2018-07-13T14:41:42.437Z,30.13
2018-07-13T14:44:15.201Z,30.38
2018-07-13T14:46:42.513Z,29.15
2018-07-13T14:49:09.874Z,27.42
2018-07-13T14:51:37.211Z,29.08
2018-07-13T14:54:05.844Z,29.45
2018-07-13T14:56:33.352Z,30.69
2018-07-13T14:59:00.673Z,30.06
2018-07-13T15:01:28.039Z,27.92
2018-07-13T15:03:55.486Z,27.41
2018-07-13T15:06:22.916Z,27.55
2018-07-13T15:08:50.121Z,27.71
2018-07-13T15:11:17.475Z,27.42
2018-07-13T15:13:44.797Z,26.11
2018-07-13T15:16:12.095Z,28.02
2018-07-13T15:18:39.340Z,28.49
2018-07-13T15:21:06.622Z,29.09
2018-07-13T15:23:33.973Z,28.57
2018-07-13T15:26:01.279Z,27.63
2018-07-13T15:28:28.546Z,28.79
2018-07-13T15:30:55.875Z,27.85
2018-07-13T15:33:23.192Z,27.79
2018-07-13T15:35:50.499Z,28.01
2018-07-13T15:38:17.711Z,27.68
2018-07-13T15:40:45.105Z,28.01
2018-07-13T15:43:25.882Z,29.36
2018-07-13T15:45:53.883Z,29.63
2018-07-13T15:48:32.630Z,28.30
2018-07-13T15:51:00.111Z,29.62
2018-07-13T15:53:28.237Z,28.91
2018-07-13T15:55:56.951Z,28.45
2018-07-13T15:58:24.422Z,28.53
2018-07-13T16:00:51.792Z,29.56
2018-07-13T16:03:19.154Z,28.85
2018-07-13T16:05:46.710Z,28.47
2018-07-13T16:08:14.023Z,28.25
2018-07-13T16:10:41.665Z,28.58
2018-07-13T16:13:08.961Z,29.03
2018-07-13T16:15:36.203Z,29.01
2018-07-13T16:18:13.300Z,28.30
2018-07-13T16:23:17.401Z,29.04
2018-07-13T16:25:44.695Z,29.12
2018-07-13T16:28:13.576Z,28.47
2018-07-13T16:30:40.849Z,28.67
2018-07-13T16:33:08.176Z,28.59
2018-07-13T16:35:35.657Z,29.87
2018-07-13T16:38:02.958Z,30.12
2018-07-13T16:40:30.238Z,30.17
2018-07-13T16:42:57.595Z,30.43
2018-07-13T16:45:24.934Z,31.59
2018-07-13T16:47:52.222Z,31.13
2018-07-13T16:50:19.494Z,31.40
2018-07-13T16:52:46.781Z,31.21
2018-07-13T16:55:14.137Z,31.69
2018-07-13T16:57:41.412Z,31.59
2018-07-13T17:00:08.772Z,31.01
2018-07-13T17:02:36.099Z,32.22
2018-07-13T17:05:03.495Z,31.13
2018-07-13T17:07:30.779Z,30.79
2018-07-13T17:09:58.037Z,31.31
2018-07-13T17:12:25.247Z,30.74
2018-07-13T17:14:52.567Z,30.79
2018-07-13T17:17:19.737Z,31.13
2018-07-13T17:19:46.963Z,32.78
2018-07-13T17:22:14.267Z,32.08
2018-07-13T17:24:41.535Z,32.09
2018-07-13T17:27:08.780Z,33.00
2018-07-13T17:29:35.993Z,31.88
2018-07-13T17:32:03.220Z,32.17
2018-07-13T17:34:30.476Z,31.82
2018-07-13T17:36:57.710Z,32.83
2018-07-13T17:39:24.967Z,33.16
2018-07-13T17:41:52.201Z,33.21
2018-07-13T17:44:19.506Z,33.06
2018-07-13T17:46:46.777Z,32.63
2018-07-13T17:49:14.007Z,32.79
2018-07-13T17:51:41.200Z,33.65
2018-07-13T17:54:08.410Z,32.59
2018-07-13T17:56:35.670Z,32.91
2018-07-13T17:59:02.896Z,33.44
2018-07-13T18:01:30.190Z,34.22
2018-07-13T18:03:57.412Z,33.88
2018-07-13T18:06:24.679Z,33.61
2018-07-13T18:08:51.928Z,34.25
2018-07-13T18:11:19.144Z,34.13
2018-07-13T18:13:46.429Z,35.21
2018-07-13T18:16:13.694Z,35.09
2018-07-13T18:18:40.895Z,35.36
2018-07-13T18:21:08.137Z,35.96
2018-07-13T18:23:35.385Z,35.35
2018-07-13T18:26:02.716Z,35.54
2018-07-13T18:28:29.933Z,37.71
2018-07-13T18:30:57.211Z,37.81
2018-07-13T18:33:24.487Z,37.69
2018-07-13T18:35:51.647Z,36.94
2018-07-13T18:38:18.923Z,37.09
2018-07-13T18:40:46.455Z,37.40
2018-07-13T18:43:13.680Z,38.25
2018-07-13T18:45:40.869Z,38.65
2018-07-13T18:48:08.214Z,38.65
2018-07-13T18:50:35.506Z,38.72
2018-07-13T18:53:03.520Z,38.72
2018-07-13T18:55:30.857Z,38.15
2018-07-13T18:57:59.169Z,38.34
2018-07-13T19:00:26.387Z,38.90
2018-07-13T19:02:53.631Z,39.62
2018-07-13T19:05:21.186Z,39.22
2018-07-13T19:07:48.426Z,39.38
2018-07-13T19:10:15.704Z,39.27
2018-07-13T19:12:42.960Z,40.46
2018-07-13T19:15:10.204Z,40.68
2018-07-13T19:17:37.444Z,40.34
2018-07-13T19:20:04.986Z,41.03
2018-07-13T19:22:32.233Z,41.24
2018-07-13T19:24:59.471Z,40.95
2018-07-13T19:27:26.674Z,41.46
2018-07-13T19:29:53.915Z,41.91
2018-07-13T19:32:21.152Z,42.11
2018-07-13T19:34:48.429Z,41.55
2018-07-13T19:37:15.643Z,42.06
2018-07-13T19:39:42.903Z,42.12
2018-07-13T19:42:10.188Z,43.02
2018-07-13T19:44:37.433Z,41.71
2018-07-13T19:47:04.984Z,41.53
2018-07-13T19:49:32.281Z,41.69
2018-07-13T19:51:59.525Z,41.83
2018-07-13T19:54:26.796Z,42.18
2018-07-13T19:56:54.098Z,43.24
2018-07-13T19:59:21.359Z,43.79
2018-07-13T20:01:48.605Z,44.21
2018-07-13T20:04:15.915Z,44.69
2018-07-13T20:06:43.214Z,44.86
2018-07-13T20:09:10.385Z,44.22
2018-07-13T20:11:37.808Z,44.65
2018-07-13T20:14:05.290Z,45.25
2018-07-13T20:16:32.598Z,44.72
2018-07-13T20:19:00.082Z,44.16
2018-07-13T20:21:27.886Z,44.63
2018-07-13T20:23:56.031Z,45.55
2018-07-13T20:26:23.554Z,45.40
2018-07-13T20:28:52.016Z,45.46
2018-07-13T20:31:19.316Z,46.65
2018-07-13T20:33:46.565Z,46.39
2018-07-13T20:36:14.017Z,46.11
2018-07-13T20:38:41.234Z,46.25
2018-07-13T20:41:08.513Z,46.69
2018-07-13T20:43:35.721Z,47.32
2018-07-13T20:46:03.101Z,46.60
2018-07-13T20:48:30.254Z,46.47
2018-07-13T20:50:57.523Z,48.20
2018-07-13T20:53:24.789Z,48.45
2018-07-13T20:55:52.082Z,49.06
2018-07-13T20:58:19.319Z,48.46
2018-07-13T21:00:46.610Z,48.59
2018-07-13T21:03:13.863Z,48.64
2018-07-13T21:05:41.051Z,49.68
2018-07-13T21:08:08.373Z,49.18
2018-07-13T21:10:35.624Z,50.06
2018-07-13T21:13:02.898Z,49.75
2018-07-13T21:15:30.121Z,50.33
2018-07-13T21:17:57.394Z,50.65
2018-07-13T21:20:24.626Z,50.48
2018-07-13T21:22:51.847Z,50.55
2018-07-13T21:25:19.085Z,50.30
2018-07-13T21:27:46.402Z,51.32
2018-07-13T21:30:13.726Z,52.12
2018-07-13T21:32:40.903Z,52.23
2018-07-13T21:35:08.197Z,53.02
2018-07-13T21:37:35.480Z,53.16
2018-07-13T21:40:02.776Z,53.47
2018-07-13T21:42:30.076Z,53.33
2018-07-13T21:44:57.302Z,53.58
2018-07-13T21:47:24.578Z,53.87
2018-07-13T21:49:51.777Z,54.00
2018-07-13T21:52:18.992Z,54.09
2018-07-13T21:54:46.242Z,54.62
2018-07-13T21:57:13.543Z,54.66
2018-07-13T21:59:40.763Z,54.61
2018-07-13T22:02:08.056Z,54.53
2018-07-13T22:04:35.238Z,54.64
2018-07-13T22:07:02.575Z,54.08
2018-07-13T22:09:29.773Z,53.95
2018-07-13T22:11:57.032Z,53.98
2018-07-13T22:14:24.342Z,53.92
2018-07-13T22:16:51.574Z,54.37
2018-07-13T22:21:45.553Z,54.93
2018-07-13T22:24:12.750Z,55.28
2018-07-13T22:26:40.014Z,55.91
2018-07-13T22:29:07.304Z,55.86
2018-07-13T22:31:34.541Z,56.06
2018-07-13T22:34:01.777Z,56.45
2018-07-13T22:36:29.059Z,56.49
2018-07-13T22:38:56.307Z,56.98
2018-07-13T22:41:23.581Z,56.42
2018-07-13T22:43:50.772Z,56.61
2018-07-13T22:46:18.094Z,56.52
2018-07-13T22:48:45.388Z,56.47
2018-07-13T22:51:12.674Z,56.28
2018-07-13T22:53:39.849Z,56.72
2018-07-13T22:56:07.155Z,56.88
2018-07-13T22:58:34.496Z,56.77
2018-07-13T23:01:01.781Z,56.89
2018-07-13T23:03:29.882Z,57.35
2018-07-13T23:05:57.555Z,57.27
2018-07-13T23:08:24.803Z,57.28
2018-07-13T23:10:52.070Z,57.46
2018-07-13T23:13:19.259Z,57.17
2018-07-13T23:15:46.422Z,57.37
2018-07-13T23:18:13.695Z,57.48
2018-07-13T23:20:40.951Z,58.43
2018-07-13T23:23:08.283Z,58.39
2018-07-13T23:25:35.559Z,59.19
2018-07-13T23:28:02.842Z,59.53
2018-07-13T23:30:30.042Z,59.64
2018-07-13T23:32:57.333Z,59.42
2018-07-13T23:35:24.650Z,60.05
2018-07-13T23:37:52.138Z,60.05
2018-07-13T23:40:19.403Z,59.70
2018-07-13T23:42:46.644Z,59.79
2018-07-13T23:45:13.939Z,60.11
2018-07-13T23:47:41.232Z,60.68
2018-07-13T23:50:08.508Z,59.94
2018-07-13T23:52:35.748Z,60.17
2018-07-13T23:55:03.342Z,60.39
2018-07-13T23:57:30.611Z,60.75
2018-07-13T23:59:57.867Z,60.57
